sensor_id;sensor_type;location;lat;lon;timestamp;P1;durP1;ratioP1;P2;durP2;ratioP2
9007;SDS011;62813;51.424;6.762;2023-01-16T00:01:20;7.70;;;3.10;;
9007;SDS011;62813;51.424;6.762;2023-01-16T00:03:47;6.27;;;2.50;;
9007;SDS011;62813;51.424;6.762;2023-01-16T00:06:14;8.20;;;1.90;;
9007;SDS011;62813;51.424;6.762;2023-01-16T00:08:41;6.37;;;1.70;;
9007;SDS011;62813;51.424;6.762;2023-01-16T00:11:09;4.73;;;1.50;;
9007;SDS011;62813;51.424;6.762;2023-01-16T00:13:37;3.70;;;1.33;;
9007;SDS011;62813;51.424;6.762;2023-01-16T00:16:04;5.90;;;1.97;;
9007;SDS011;62813;51.424;6.762;2023-01-16T00:18:31;9.13;;;3.93;;
9007;SDS011;62813;51.424;6.762;2023-01-16T00:20:58;8.23;;;3.30;;
9007;SDS011;62813;51.424;6.762;2023-01-16T00:23:25;8.37;;;3.50;;
9007;SDS011;62813;51.424;6.762;2023-01-16T00:25:51;8.03;;;3.40;;
9007;SDS011;62813;51.424;6.762;2023-01-16T00:28:18;9.20;;;3.57;;
9007;SDS011;62813;51.424;6.762;2023-01-16T00:30:45;7.13;;;3.63;;
9007;SDS011;62813;51.424;6.762;2023-01-16T00:33:12;10.80;;;3.33;;
9007;SDS011;62813;51.424;6.762;2023-01-16T00:35:38;8.00;;;3.30;;
9007;SDS011;62813;51.424;6.762;2023-01-16T00:38:05;10.93;;;3.33;;
9007;SDS011;62813;51.424;6.762;2023-01-16T00:40:32;6.40;;;2.37;;
9007;SDS011;62813;51.424;6.762;2023-01-16T00:42:58;7.43;;;1.70;;
9007;SDS011;62813;51.424;6.762;2023-01-16T00:45:25;7.20;;;2.27;;
9007;SDS011;62813;51.424;6.762;2023-01-16T00:47:52;5.90;;;2.10;;
9007;SDS011;62813;51.424;6.762;2023-01-16T00:50:18;8.63;;;2.40;;
9007;SDS011;62813;51.424;6.762;2023-01-16T00:52:45;5.57;;;2.10;;
9007;SDS011;62813;51.424;6.762;2023-01-16T00:55:14;6.00;;;1.70;;
9007;SDS011;62813;51.424;6.762;2023-01-16T00:57:43;4.70;;;1.83;;
9007;SDS011;62813;51.424;6.762;2023-01-16T01:00:12;5.57;;;1.60;;
9007;SDS011;62813;51.424;6.762;2023-01-16T01:02:38;4.27;;;1.30;;
9007;SDS011;62813;51.424;6.762;2023-01-16T01:05:05;6.93;;;1.53;;
9007;SDS011;62813;51.424;6.762;2023-01-16T01:07:32;3.00;;;1.70;;
9007;SDS011;62813;51.424;6.762;2023-01-16T01:09:58;3.10;;;1.30;;
9007;SDS011;62813;51.424;6.762;2023-01-16T01:12:25;3.17;;;1.10;;
9007;SDS011;62813;51.424;6.762;2023-01-16T01:14:51;2.03;;;0.83;;
9007;SDS011;62813;51.424;6.762;2023-01-16T01:17:18;4.03;;;1.40;;
9007;SDS011;62813;51.424;6.762;2023-01-16T01:19:46;3.80;;;1.10;;
9007;SDS011;62813;51.424;6.762;2023-01-16T01:22:13;6.73;;;1.73;;
9007;SDS011;62813;51.424;6.762;2023-01-16T01:24:42;6.17;;;1.30;;
9007;SDS011;62813;51.424;6.762;2023-01-16T01:27:10;3.80;;;1.10;;
9007;SDS011;62813;51.424;6.762;2023-01-16T01:29:37;4.33;;;1.53;;
9007;SDS011;62813;51.424;6.762;2023-01-16T01:32:03;7.00;;;1.50;;
9007;SDS011;62813;51.424;6.762;2023-01-16T01:34:32;4.20;;;1.40;;
9007;SDS011;62813;51.424;6.762;2023-01-16T01:37:01;5.03;;;1.53;;
9007;SDS011;62813;51.424;6.762;2023-01-16T01:39:28;3.63;;;1.30;;
9007;SDS011;62813;51.424;6.762;2023-01-16T01:41:55;5.17;;;1.23;;
9007;SDS011;62813;51.424;6.762;2023-01-16T01:44:47;7.03;;;1.73;;
9007;SDS011;62813;51.424;6.762;2023-01-16T01:47:16;3.47;;;1.47;;
9007;SDS011;62813;51.424;6.762;2023-01-16T01:49:46;4.10;;;1.07;;
9007;SDS011;62813;51.424;6.762;2023-01-16T01:52:14;3.03;;;1.30;;
9007;SDS011;62813;51.424;6.762;2023-01-16T01:54:43;6.80;;;1.40;;
9007;SDS011;62813;51.424;6.762;2023-01-16T01:57:16;2.53;;;1.33;;
9007;SDS011;62813;51.424;6.762;2023-01-16T01:59:49;4.40;;;1.37;;
9007;SDS011;62813;51.424;6.762;2023-01-16T02:02:45;3.03;;;1.17;;
9007;SDS011;62813;51.424;6.762;2023-01-16T02:05:25;4.13;;;1.63;;
9007;SDS011;62813;51.424;6.762;2023-01-16T02:08:00;4.90;;;1.80;;
9007;SDS011;62813;51.424;6.762;2023-01-16T02:10:37;8.30;;;2.13;;
9007;SDS011;62813;51.424;6.762;2023-01-16T02:13:08;5.13;;;1.33;;
9007;SDS011;62813;51.424;6.762;2023-01-16T02:15:34;5.97;;;1.37;;
9007;SDS011;62813;51.424;6.762;2023-01-16T02:18:03;4.30;;;1.20;;
9007;SDS011;62813;51.424;6.762;2023-01-16T02:26:42;4.70;;;1.50;;
9007;SDS011;62813;51.424;6.762;2023-01-16T02:32:55;3.90;;;1.20;;
9007;SDS011;62813;51.424;6.762;2023-01-16T02:38:24;3.97;;;1.13;;
9007;SDS011;62813;51.424;6.762;2023-01-16T02:41:14;4.03;;;1.43;;
9007;SDS011;62813;51.424;6.762;2023-01-16T02:43:57;5.83;;;1.20;;
9007;SDS011;62813;51.424;6.762;2023-01-16T02:46:43;5.77;;;1.30;;
9007;SDS011;62813;51.424;6.762;2023-01-16T02:52:05;4.73;;;1.07;;
9007;SDS011;62813;51.424;6.762;2023-01-16T02:54:41;2.43;;;1.03;;
9007;SDS011;62813;51.424;6.762;2023-01-16T02:57:16;2.67;;;0.90;;
9007;SDS011;62813;51.424;6.762;2023-01-16T02:59:44;2.50;;;0.90;;
9007;SDS011;62813;51.424;6.762;2023-01-16T03:02:13;4.70;;;1.20;;
9007;SDS011;62813;51.424;6.762;2023-01-16T03:04:48;2.87;;;1.40;;
9007;SDS011;62813;51.424;6.762;2023-01-16T03:13:18;4.00;;;1.30;;
9007;SDS011;62813;51.424;6.762;2023-01-16T03:22:14;2.90;;;1.37;;
9007;SDS011;62813;51.424;6.762;2023-01-16T03:24:55;5.80;;;1.30;;
9007;SDS011;62813;51.424;6.762;2023-01-16T03:33:26;4.10;;;1.20;;
9007;SDS011;62813;51.424;6.762;2023-01-16T03:35:55;3.13;;;1.20;;
9007;SDS011;62813;51.424;6.762;2023-01-16T03:38:25;2.97;;;1.27;;
9007;SDS011;62813;51.424;6.762;2023-01-16T03:40:56;1.63;;;1.10;;
9007;SDS011;62813;51.424;6.762;2023-01-16T03:43:28;3.73;;;1.20;;
9007;SDS011;62813;51.424;6.762;2023-01-16T03:46:00;1.87;;;1.00;;
9007;SDS011;62813;51.424;6.762;2023-01-16T03:48:38;4.57;;;1.20;;
9007;SDS011;62813;51.424;6.762;2023-01-16T03:51:18;1.60;;;1.10;;
9007;SDS011;62813;51.424;6.762;2023-01-16T03:54:05;3.20;;;0.90;;
9007;SDS011;62813;51.424;6.762;2023-01-16T03:56:38;3.30;;;1.07;;
9007;SDS011;62813;51.424;6.762;2023-01-16T03:59:12;2.93;;;0.90;;
9007;SDS011;62813;51.424;6.762;2023-01-16T04:01:40;1.70;;;0.90;;
9007;SDS011;62813;51.424;6.762;2023-01-16T04:04:18;3.43;;;1.23;;
9007;SDS011;62813;51.424;6.762;2023-01-16T04:07:11;3.37;;;0.93;;
9007;SDS011;62813;51.424;6.762;2023-01-16T04:09:52;2.20;;;1.10;;
9007;SDS011;62813;51.424;6.762;2023-01-16T04:12:23;3.10;;;1.10;;
9007;SDS011;62813;51.424;6.762;2023-01-16T04:14:56;3.23;;;0.90;;
9007;SDS011;62813;51.424;6.762;2023-01-16T04:17:27;2.97;;;0.60;;
9007;SDS011;62813;51.424;6.762;2023-01-16T04:19:55;1.77;;;0.90;;
9007;SDS011;62813;51.424;6.762;2023-01-16T04:22:23;1.40;;;0.63;;
9007;SDS011;62813;51.424;6.762;2023-01-16T04:24:51;1.63;;;0.60;;
9007;SDS011;62813;51.424;6.762;2023-01-16T04:27:21;2.93;;;0.80;;
9007;SDS011;62813;51.424;6.762;2023-01-16T04:29:48;2.17;;;0.90;;
9007;SDS011;62813;51.424;6.762;2023-01-16T04:32:14;1.30;;;0.63;;
9007;SDS011;62813;51.424;6.762;2023-01-16T04:34:41;2.50;;;0.80;;
9007;SDS011;62813;51.424;6.762;2023-01-16T04:37:08;0.87;;;0.70;;
9007;SDS011;62813;51.424;6.762;2023-01-16T04:39:38;2.40;;;1.00;;
9007;SDS011;62813;51.424;6.762;2023-01-16T04:42:07;1.93;;;0.67;;
9007;SDS011;62813;51.424;6.762;2023-01-16T04:44:34;1.97;;;0.80;;
9007;SDS011;62813;51.424;6.762;2023-01-16T04:47:01;1.07;;;0.70;;
9007;SDS011;62813;51.424;6.762;2023-01-16T04:49:27;1.83;;;0.70;;
9007;SDS011;62813;51.424;6.762;2023-01-16T04:51:54;1.97;;;0.60;;
9007;SDS011;62813;51.424;6.762;2023-01-16T04:54:20;1.70;;;0.80;;
9007;SDS011;62813;51.424;6.762;2023-01-16T04:56:47;1.03;;;0.73;;
9007;SDS011;62813;51.424;6.762;2023-01-16T04:59:16;1.93;;;1.00;;
9007;SDS011;62813;51.424;6.762;2023-01-16T05:01:44;3.33;;;0.90;;
9007;SDS011;62813;51.424;6.762;2023-01-16T05:04:11;3.03;;;0.93;;
9007;SDS011;62813;51.424;6.762;2023-01-16T05:06:40;2.17;;;0.90;;
9007;SDS011;62813;51.424;6.762;2023-01-16T05:09:07;1.97;;;0.87;;
9007;SDS011;62813;51.424;6.762;2023-01-16T05:11:34;1.40;;;0.87;;
9007;SDS011;62813;51.424;6.762;2023-01-16T05:14:01;1.43;;;0.90;;
9007;SDS011;62813;51.424;6.762;2023-01-16T05:16:28;1.03;;;0.80;;
9007;SDS011;62813;51.424;6.762;2023-01-16T05:18:54;4.20;;;1.07;;
9007;SDS011;62813;51.424;6.762;2023-01-16T05:21:21;3.87;;;0.87;;
9007;SDS011;62813;51.424;6.762;2023-01-16T05:23:47;2.60;;;0.80;;
9007;SDS011;62813;51.424;6.762;2023-01-16T05:26:14;3.37;;;1.20;;
9007;SDS011;62813;51.424;6.762;2023-01-16T05:28:40;2.10;;;1.03;;
9007;SDS011;62813;51.424;6.762;2023-01-16T05:31:07;5.13;;;1.53;;
9007;SDS011;62813;51.424;6.762;2023-01-16T05:33:33;3.57;;;1.00;;
9007;SDS011;62813;51.424;6.762;2023-01-16T05:36:00;3.70;;;0.97;;
9007;SDS011;62813;51.424;6.762;2023-01-16T05:38:27;1.47;;;0.80;;
9007;SDS011;62813;51.424;6.762;2023-01-16T05:40:53;4.47;;;1.13;;
9007;SDS011;62813;51.424;6.762;2023-01-16T05:43:20;1.93;;;0.83;;
9007;SDS011;62813;51.424;6.762;2023-01-16T05:45:47;2.63;;;1.00;;
9007;SDS011;62813;51.424;6.762;2023-01-16T05:48:14;3.77;;;1.13;;
9007;SDS011;62813;51.424;6.762;2023-01-16T05:50:40;4.03;;;1.43;;
9007;SDS011;62813;51.424;6.762;2023-01-16T05:53:07;1.30;;;0.80;;
9007;SDS011;62813;51.424;6.762;2023-01-16T05:55:42;1.80;;;0.80;;
9007;SDS011;62813;51.424;6.762;2023-01-16T05:58:11;2.57;;;0.73;;
9007;SDS011;62813;51.424;6.762;2023-01-16T06:00:39;2.33;;;1.10;;
9007;SDS011;62813;51.424;6.762;2023-01-16T06:03:07;1.80;;;1.00;;
9007;SDS011;62813;51.424;6.762;2023-01-16T06:05:34;2.33;;;0.90;;
9007;SDS011;62813;51.424;6.762;2023-01-16T06:08:01;2.27;;;1.00;;
9007;SDS011;62813;51.424;6.762;2023-01-16T06:10:28;3.20;;;1.00;;
9007;SDS011;62813;51.424;6.762;2023-01-16T06:12:54;5.13;;;1.00;;
9007;SDS011;62813;51.424;6.762;2023-01-16T06:15:21;4.20;;;0.90;;
9007;SDS011;62813;51.424;6.762;2023-01-16T06:17:48;2.33;;;1.00;;
9007;SDS011;62813;51.424;6.762;2023-01-16T06:20:16;5.13;;;1.00;;
9007;SDS011;62813;51.424;6.762;2023-01-16T06:22:43;3.17;;;1.37;;
9007;SDS011;62813;51.424;6.762;2023-01-16T06:25:10;4.50;;;0.97;;
9007;SDS011;62813;51.424;6.762;2023-01-16T06:27:37;1.80;;;0.90;;
9007;SDS011;62813;51.424;6.762;2023-01-16T06:30:04;3.43;;;1.00;;
9007;SDS011;62813;51.424;6.762;2023-01-16T06:32:32;2.23;;;0.90;;
9007;SDS011;62813;51.424;6.762;2023-01-16T06:34:59;3.13;;;0.77;;
9007;SDS011;62813;51.424;6.762;2023-01-16T06:37:25;2.60;;;0.90;;
9007;SDS011;62813;51.424;6.762;2023-01-16T06:39:52;3.23;;;1.20;;
9007;SDS011;62813;51.424;6.762;2023-01-16T06:42:18;7.33;;;1.53;;
9007;SDS011;62813;51.424;6.762;2023-01-16T06:44:46;7.50;;;1.70;;
9007;SDS011;62813;51.424;6.762;2023-01-16T06:47:13;2.80;;;0.97;;
9007;SDS011;62813;51.424;6.762;2023-01-16T06:49:41;2.33;;;1.00;;
9007;SDS011;62813;51.424;6.762;2023-01-16T06:52:08;4.80;;;1.10;;
9007;SDS011;62813;51.424;6.762;2023-01-16T06:54:34;1.83;;;1.13;;
9007;SDS011;62813;51.424;6.762;2023-01-16T06:57:01;4.77;;;1.27;;
9007;SDS011;62813;51.424;6.762;2023-01-16T06:59:27;7.23;;;1.87;;
9007;SDS011;62813;51.424;6.762;2023-01-16T07:01:54;4.07;;;1.10;;
9007;SDS011;62813;51.424;6.762;2023-01-16T07:04:20;2.43;;;0.80;;
9007;SDS011;62813;51.424;6.762;2023-01-16T07:06:47;1.63;;;0.80;;
9007;SDS011;62813;51.424;6.762;2023-01-16T07:09:16;1.43;;;0.73;;
9007;SDS011;62813;51.424;6.762;2023-01-16T07:11:43;2.40;;;0.90;;
9007;SDS011;62813;51.424;6.762;2023-01-16T07:14:09;1.70;;;0.83;;
9007;SDS011;62813;51.424;6.762;2023-01-16T07:16:55;3.70;;;1.00;;
9007;SDS011;62813;51.424;6.762;2023-01-16T07:19:40;2.17;;;0.90;;
9007;SDS011;62813;51.424;6.762;2023-01-16T07:22:25;3.03;;;1.00;;
9007;SDS011;62813;51.424;6.762;2023-01-16T07:25:08;1.80;;;1.03;;
9007;SDS011;62813;51.424;6.762;2023-01-16T07:27:40;2.07;;;0.90;;
9007;SDS011;62813;51.424;6.762;2023-01-16T07:30:09;2.73;;;1.27;;
9007;SDS011;62813;51.424;6.762;2023-01-16T07:32:37;2.63;;;0.83;;
9007;SDS011;62813;51.424;6.762;2023-01-16T07:35:05;2.97;;;0.90;;
9007;SDS011;62813;51.424;6.762;2023-01-16T07:37:33;2.70;;;1.10;;
9007;SDS011;62813;51.424;6.762;2023-01-16T07:40:00;2.60;;;1.13;;
9007;SDS011;62813;51.424;6.762;2023-01-16T07:42:27;1.53;;;0.97;;
9007;SDS011;62813;51.424;6.762;2023-01-16T07:44:54;2.40;;;1.17;;
9007;SDS011;62813;51.424;6.762;2023-01-16T07:47:20;4.40;;;1.00;;
9007;SDS011;62813;51.424;6.762;2023-01-16T07:49:47;3.90;;;1.17;;
9007;SDS011;62813;51.424;6.762;2023-01-16T07:52:14;4.37;;;1.10;;
9007;SDS011;62813;51.424;6.762;2023-01-16T07:54:40;4.70;;;1.30;;
9007;SDS011;62813;51.424;6.762;2023-01-16T07:57:07;3.40;;;1.37;;
9007;SDS011;62813;51.424;6.762;2023-01-16T07:59:33;4.17;;;1.17;;
9007;SDS011;62813;51.424;6.762;2023-01-16T08:02:00;2.73;;;1.40;;
9007;SDS011;62813;51.424;6.762;2023-01-16T08:04:28;2.17;;;1.33;;
9007;SDS011;62813;51.424;6.762;2023-01-16T08:06:57;3.10;;;1.30;;
9007;SDS011;62813;51.424;6.762;2023-01-16T08:09:24;2.13;;;1.30;;
9007;SDS011;62813;51.424;6.762;2023-01-16T08:11:50;2.27;;;1.40;;
9007;SDS011;62813;51.424;6.762;2023-01-16T08:14:17;3.10;;;1.30;;
9007;SDS011;62813;51.424;6.762;2023-01-16T08:16:43;4.03;;;1.40;;
9007;SDS011;62813;51.424;6.762;2023-01-16T08:19:10;2.50;;;1.30;;
9007;SDS011;62813;51.424;6.762;2023-01-16T08:21:37;3.03;;;1.80;;
9007;SDS011;62813;51.424;6.762;2023-01-16T08:24:03;3.70;;;1.37;;
9007;SDS011;62813;51.424;6.762;2023-01-16T08:26:30;4.43;;;1.30;;
9007;SDS011;62813;51.424;6.762;2023-01-16T08:28:57;2.63;;;1.50;;
9007;SDS011;62813;51.424;6.762;2023-01-16T08:31:26;3.23;;;1.20;;
9007;SDS011;62813;51.424;6.762;2023-01-16T08:33:52;2.00;;;1.33;;
9007;SDS011;62813;51.424;6.762;2023-01-16T08:36:19;2.50;;;1.30;;
9007;SDS011;62813;51.424;6.762;2023-01-16T08:38:47;2.37;;;1.10;;
9007;SDS011;62813;51.424;6.762;2023-01-16T08:41:14;5.20;;;1.40;;
9007;SDS011;62813;51.424;6.762;2023-01-16T08:44:01;3.33;;;1.43;;
9007;SDS011;62813;51.424;6.762;2023-01-16T08:46:54;3.13;;;1.30;;
9007;SDS011;62813;51.424;6.762;2023-01-16T08:49:42;3.40;;;1.13;;
9007;SDS011;62813;51.424;6.762;2023-01-16T08:52:28;4.37;;;1.37;;
9007;SDS011;62813;51.424;6.762;2023-01-16T08:54:57;1.77;;;1.00;;
9007;SDS011;62813;51.424;6.762;2023-01-16T08:57:25;5.60;;;1.10;;
9007;SDS011;62813;51.424;6.762;2023-01-16T08:59:54;7.30;;;1.50;;
9007;SDS011;62813;51.424;6.762;2023-01-16T09:02:21;6.67;;;1.40;;
9007;SDS011;62813;51.424;6.762;2023-01-16T09:04:49;1.70;;;1.13;;
9007;SDS011;62813;51.424;6.762;2023-01-16T09:07:16;4.00;;;1.23;;
9007;SDS011;62813;51.424;6.762;2023-01-16T09:09:42;3.47;;;0.93;;
9007;SDS011;62813;51.424;6.762;2023-01-16T09:12:09;2.93;;;1.00;;
9007;SDS011;62813;51.424;6.762;2023-01-16T09:14:55;5.17;;;1.17;;
9007;SDS011;62813;51.424;6.762;2023-01-16T09:17:23;4.43;;;1.13;;
9007;SDS011;62813;51.424;6.762;2023-01-16T09:19:51;3.50;;;0.90;;
9007;SDS011;62813;51.424;6.762;2023-01-16T09:22:18;2.50;;;1.20;;
9007;SDS011;62813;51.424;6.762;2023-01-16T09:24:45;3.13;;;1.30;;
9007;SDS011;62813;51.424;6.762;2023-01-16T09:27:11;2.03;;;1.13;;
9007;SDS011;62813;51.424;6.762;2023-01-16T09:29:45;2.90;;;1.30;;
9007;SDS011;62813;51.424;6.762;2023-01-16T09:32:12;5.03;;;1.40;;
9007;SDS011;62813;51.424;6.762;2023-01-16T09:34:39;3.20;;;1.20;;
9007;SDS011;62813;51.424;6.762;2023-01-16T09:37:07;3.87;;;1.17;;
9007;SDS011;62813;51.424;6.762;2023-01-16T09:39:34;2.83;;;1.03;;
9007;SDS011;62813;51.424;6.762;2023-01-16T09:42:06;3.97;;;1.17;;
9007;SDS011;62813;51.424;6.762;2023-01-16T09:45:00;3.10;;;1.10;;
9007;SDS011;62813;51.424;6.762;2023-01-16T09:47:32;1.67;;;0.93;;
9007;SDS011;62813;51.424;6.762;2023-01-16T09:52:31;2.53;;;0.90;;
9007;SDS011;62813;51.424;6.762;2023-01-16T09:55:25;1.67;;;0.87;;
9007;SDS011;62813;51.424;6.762;2023-01-16T09:58:23;1.57;;;0.80;;
9007;SDS011;62813;51.424;6.762;2023-01-16T10:01:02;1.03;;;0.73;;
9007;SDS011;62813;51.424;6.762;2023-01-16T10:03:34;3.50;;;1.27;;
9007;SDS011;62813;51.424;6.762;2023-01-16T10:11:28;3.60;;;0.80;;
9007;SDS011;62813;51.424;6.762;2023-01-16T10:22:44;1.47;;;0.80;;
9007;SDS011;62813;51.424;6.762;2023-01-16T10:33:48;1.37;;;0.80;;
9007;SDS011;62813;51.424;6.762;2023-01-16T10:36:24;2.53;;;1.00;;
9007;SDS011;62813;51.424;6.762;2023-01-16T10:38:56;1.67;;;0.90;;
9007;SDS011;62813;51.424;6.762;2023-01-16T10:41:35;1.77;;;0.90;;
9007;SDS011;62813;51.424;6.762;2023-01-16T10:44:35;1.93;;;0.97;;
9007;SDS011;62813;51.424;6.762;2023-01-16T10:47:31;1.83;;;1.17;;
9007;SDS011;62813;51.424;6.762;2023-01-16T10:50:19;2.30;;;0.80;;
9007;SDS011;62813;51.424;6.762;2023-01-16T10:53:02;3.00;;;0.70;;
9007;SDS011;62813;51.424;6.762;2023-01-16T10:55:30;2.63;;;0.80;;
9007;SDS011;62813;51.424;6.762;2023-01-16T10:58:05;2.47;;;0.90;;
9007;SDS011;62813;51.424;6.762;2023-01-16T11:00:48;1.40;;;0.60;;
9007;SDS011;62813;51.424;6.762;2023-01-16T11:03:18;1.53;;;0.70;;
9007;SDS011;62813;51.424;6.762;2023-01-16T11:05:47;2.47;;;0.90;;
9007;SDS011;62813;51.424;6.762;2023-01-16T11:08:15;0.93;;;0.80;;
9007;SDS011;62813;51.424;6.762;2023-01-16T11:10:49;1.03;;;0.77;;
9007;SDS011;62813;51.424;6.762;2023-01-16T11:13:23;1.13;;;0.80;;
9007;SDS011;62813;51.424;6.762;2023-01-16T11:18:58;1.57;;;0.90;;
9007;SDS011;62813;51.424;6.762;2023-01-16T11:21:29;0.77;;;0.70;;
9007;SDS011;62813;51.424;6.762;2023-01-16T11:24:10;2.90;;;1.03;;
9007;SDS011;62813;51.424;6.762;2023-01-16T11:26:42;1.10;;;0.87;;
9007;SDS011;62813;51.424;6.762;2023-01-16T11:29:17;3.27;;;0.70;;
9007;SDS011;62813;51.424;6.762;2023-01-16T11:31:54;1.60;;;0.80;;
9007;SDS011;62813;51.424;6.762;2023-01-16T11:34:24;1.43;;;0.60;;
9007;SDS011;62813;51.424;6.762;2023-01-16T11:36:54;1.00;;;0.60;;
9007;SDS011;62813;51.424;6.762;2023-01-16T11:39:24;1.03;;;0.57;;
9007;SDS011;62813;51.424;6.762;2023-01-16T11:41:54;2.43;;;0.80;;
9007;SDS011;62813;51.424;6.762;2023-01-16T11:44:29;1.33;;;0.70;;
9007;SDS011;62813;51.424;6.762;2023-01-16T11:47:21;0.90;;;0.70;;
9007;SDS011;62813;51.424;6.762;2023-01-16T11:49:52;1.80;;;0.80;;
9007;SDS011;62813;51.424;6.762;2023-01-16T11:52:21;2.40;;;0.80;;
9007;SDS011;62813;51.424;6.762;2023-01-16T11:54:56;2.67;;;1.03;;
9007;SDS011;62813;51.424;6.762;2023-01-16T12:05:55;0.80;;;0.70;;
9007;SDS011;62813;51.424;6.762;2023-01-16T12:14:22;1.80;;;1.00;;
9007;SDS011;62813;51.424;6.762;2023-01-16T12:17:04;1.00;;;0.70;;
9007;SDS011;62813;51.424;6.762;2023-01-16T12:28:16;1.00;;;0.63;;
9007;SDS011;62813;51.424;6.762;2023-01-16T12:34:04;2.27;;;0.90;;
9007;SDS011;62813;51.424;6.762;2023-01-16T12:39:27;1.23;;;0.80;;
9007;SDS011;62813;51.424;6.762;2023-01-16T12:42:04;0.60;;;0.60;;
9007;SDS011;62813;51.424;6.762;2023-01-16T12:47:53;1.63;;;0.80;;
9007;SDS011;62813;51.424;6.762;2023-01-16T12:50:34;2.73;;;0.90;;
9007;SDS011;62813;51.424;6.762;2023-01-16T12:53:14;1.33;;;0.77;;
9007;SDS011;62813;51.424;6.762;2023-01-16T12:58:36;2.57;;;0.90;;
9007;SDS011;62813;51.424;6.762;2023-01-16T13:03:58;1.87;;;1.00;;
9007;SDS011;62813;51.424;6.762;2023-01-16T13:09:11;2.20;;;1.00;;
9007;SDS011;62813;51.424;6.762;2023-01-16T13:11:57;1.33;;;0.83;;
9007;SDS011;62813;51.424;6.762;2023-01-16T13:14:49;2.50;;;1.00;;
9007;SDS011;62813;51.424;6.762;2023-01-16T13:17:22;0.97;;;0.67;;
9007;SDS011;62813;51.424;6.762;2023-01-16T13:19:56;0.77;;;0.70;;
9007;SDS011;62813;51.424;6.762;2023-01-16T13:22:28;3.27;;;1.27;;
9007;SDS011;62813;51.424;6.762;2023-01-16T13:25:12;1.20;;;0.97;;
9007;SDS011;62813;51.424;6.762;2023-01-16T13:27:52;1.07;;;0.90;;
9007;SDS011;62813;51.424;6.762;2023-01-16T13:30:23;2.20;;;0.90;;
9007;SDS011;62813;51.424;6.762;2023-01-16T13:35:27;1.40;;;0.90;;
9007;SDS011;62813;51.424;6.762;2023-01-16T13:41:00;0.63;;;0.63;;
9007;SDS011;62813;51.424;6.762;2023-01-16T13:43:34;2.10;;;0.90;;
9007;SDS011;62813;51.424;6.762;2023-01-16T13:46:24;1.90;;;0.80;;
9007;SDS011;62813;51.424;6.762;2023-01-16T13:48:52;2.03;;;0.80;;
9007;SDS011;62813;51.424;6.762;2023-01-16T13:51:20;1.10;;;0.70;;
9007;SDS011;62813;51.424;6.762;2023-01-16T13:53:51;0.70;;;0.67;;
9007;SDS011;62813;51.424;6.762;2023-01-16T13:56:31;0.80;;;0.80;;
9007;SDS011;62813;51.424;6.762;2023-01-16T13:59:03;1.00;;;0.70;;
9007;SDS011;62813;51.424;6.762;2023-01-16T14:06:45;2.57;;;0.97;;
9007;SDS011;62813;51.424;6.762;2023-01-16T14:18:00;1.00;;;0.90;;
9007;SDS011;62813;51.424;6.762;2023-01-16T14:26:04;0.97;;;0.80;;
9007;SDS011;62813;51.424;6.762;2023-01-16T14:28:33;1.90;;;1.10;;
9007;SDS011;62813;51.424;6.762;2023-01-16T14:31:00;1.20;;;0.80;;
9007;SDS011;62813;51.424;6.762;2023-01-16T14:33:28;1.00;;;0.90;;
9007;SDS011;62813;51.424;6.762;2023-01-16T14:35:57;0.90;;;0.70;;
9007;SDS011;62813;51.424;6.762;2023-01-16T14:38:28;1.00;;;0.90;;
9007;SDS011;62813;51.424;6.762;2023-01-16T14:41:03;1.20;;;0.80;;
9007;SDS011;62813;51.424;6.762;2023-01-16T14:50:16;1.27;;;1.00;;
9007;SDS011;62813;51.424;6.762;2023-01-16T14:55:57;1.37;;;1.00;;
9007;SDS011;62813;51.424;6.762;2023-01-16T15:01:07;1.30;;;1.00;;
9007;SDS011;62813;51.424;6.762;2023-01-16T15:04:16;1.37;;;0.90;;
9007;SDS011;62813;51.424;6.762;2023-01-16T15:06:57;1.60;;;0.87;;
9007;SDS011;62813;51.424;6.762;2023-01-16T15:09:29;1.90;;;0.97;;
9007;SDS011;62813;51.424;6.762;2023-01-16T15:12:08;0.97;;;0.70;;
9007;SDS011;62813;51.424;6.762;2023-01-16T15:14:37;0.77;;;0.77;;
9007;SDS011;62813;51.424;6.762;2023-01-16T15:20:17;1.67;;;0.83;;
9007;SDS011;62813;51.424;6.762;2023-01-16T15:23:07;4.57;;;0.90;;
9007;SDS011;62813;51.424;6.762;2023-01-16T15:25:54;1.43;;;1.20;;
9007;SDS011;62813;51.424;6.762;2023-01-16T15:31:14;2.47;;;0.70;;
9007;SDS011;62813;51.424;6.762;2023-01-16T15:33:44;1.37;;;0.90;;
9007;SDS011;62813;51.424;6.762;2023-01-16T15:38:49;1.93;;;0.93;;
9007;SDS011;62813;51.424;6.762;2023-01-16T15:41:29;1.10;;;0.80;;
9007;SDS011;62813;51.424;6.762;2023-01-16T15:44:17;1.60;;;1.10;;
9007;SDS011;62813;51.424;6.762;2023-01-16T15:47:12;0.87;;;0.77;;
9007;SDS011;62813;51.424;6.762;2023-01-16T15:50:17;1.97;;;0.90;;
9007;SDS011;62813;51.424;6.762;2023-01-16T15:52:54;1.53;;;0.80;;
9007;SDS011;62813;51.424;6.762;2023-01-16T15:55:25;1.00;;;0.80;;
9007;SDS011;62813;51.424;6.762;2023-01-16T15:58:00;1.03;;;0.93;;
9007;SDS011;62813;51.424;6.762;2023-01-16T16:00:38;1.00;;;0.90;;
9007;SDS011;62813;51.424;6.762;2023-01-16T16:03:16;2.47;;;1.03;;
9007;SDS011;62813;51.424;6.762;2023-01-16T16:05:52;1.07;;;0.90;;
9007;SDS011;62813;51.424;6.762;2023-01-16T16:08:23;1.87;;;1.00;;
9007;SDS011;62813;51.424;6.762;2023-01-16T16:10:51;3.13;;;1.70;;
9007;SDS011;62813;51.424;6.762;2023-01-16T16:13:38;2.53;;;1.30;;
9007;SDS011;62813;51.424;6.762;2023-01-16T16:16:15;3.03;;;1.30;;
9007;SDS011;62813;51.424;6.762;2023-01-16T16:19:02;1.30;;;1.20;;
9007;SDS011;62813;51.424;6.762;2023-01-16T16:21:31;2.57;;;1.33;;
9007;SDS011;62813;51.424;6.762;2023-01-16T16:24:00;3.40;;;1.13;;
9007;SDS011;62813;51.424;6.762;2023-01-16T16:26:31;1.10;;;1.00;;
9007;SDS011;62813;51.424;6.762;2023-01-16T16:29:03;2.93;;;1.20;;
9007;SDS011;62813;51.424;6.762;2023-01-16T16:31:33;2.07;;;1.20;;
9007;SDS011;62813;51.424;6.762;2023-01-16T16:34:04;2.43;;;1.10;;
9007;SDS011;62813;51.424;6.762;2023-01-16T16:36:46;2.47;;;1.20;;
9007;SDS011;62813;51.424;6.762;2023-01-16T16:41:56;2.37;;;1.40;;
9007;SDS011;62813;51.424;6.762;2023-01-16T16:44:43;2.23;;;1.53;;
9007;SDS011;62813;51.424;6.762;2023-01-16T16:47:21;3.23;;;1.47;;
9007;SDS011;62813;51.424;6.762;2023-01-16T16:49:49;1.80;;;1.30;;
9007;SDS011;62813;51.424;6.762;2023-01-16T16:58:00;3.00;;;1.47;;
9007;SDS011;62813;51.424;6.762;2023-01-16T17:00:30;2.73;;;1.77;;
9007;SDS011;62813;51.424;6.762;2023-01-16T17:03:04;1.90;;;1.40;;
9007;SDS011;62813;51.424;6.762;2023-01-16T17:05:36;5.83;;;1.70;;
9007;SDS011;62813;51.424;6.762;2023-01-16T17:08:02;3.27;;;1.40;;
9007;SDS011;62813;51.424;6.762;2023-01-16T17:10:29;1.97;;;1.47;;
9007;SDS011;62813;51.424;6.762;2023-01-16T17:12:56;2.27;;;1.57;;
9007;SDS011;62813;51.424;6.762;2023-01-16T17:15:23;1.97;;;1.50;;
9007;SDS011;62813;51.424;6.762;2023-01-16T17:17:50;2.27;;;1.70;;
9007;SDS011;62813;51.424;6.762;2023-01-16T17:20:23;2.27;;;1.70;;
9007;SDS011;62813;51.424;6.762;2023-01-16T17:22:51;3.20;;;1.40;;
9007;SDS011;62813;51.424;6.762;2023-01-16T17:25:18;1.77;;;1.60;;
9007;SDS011;62813;51.424;6.762;2023-01-16T17:27:46;4.30;;;1.60;;
9007;SDS011;62813;51.424;6.762;2023-01-16T17:30:15;2.27;;;1.73;;
9007;SDS011;62813;51.424;6.762;2023-01-16T17:32:43;2.33;;;1.80;;
9007;SDS011;62813;51.424;6.762;2023-01-16T17:35:18;2.33;;;1.97;;
9007;SDS011;62813;51.424;6.762;2023-01-16T17:37:44;3.73;;;2.30;;
9007;SDS011;62813;51.424;6.762;2023-01-16T17:40:12;5.93;;;3.23;;
9007;SDS011;62813;51.424;6.762;2023-01-16T17:42:39;5.57;;;3.73;;
9007;SDS011;62813;51.424;6.762;2023-01-16T17:45:27;6.33;;;4.07;;
9007;SDS011;62813;51.424;6.762;2023-01-16T17:48:15;9.50;;;4.80;;
9007;SDS011;62813;51.424;6.762;2023-01-16T17:50:41;17.03;;;7.77;;
9007;SDS011;62813;51.424;6.762;2023-01-16T17:53:12;13.00;;;7.60;;
9007;SDS011;62813;51.424;6.762;2023-01-16T17:55:45;10.67;;;7.20;;
9007;SDS011;62813;51.424;6.762;2023-01-16T17:58:20;9.03;;;6.43;;
9007;SDS011;62813;51.424;6.762;2023-01-16T18:00:51;11.60;;;7.30;;
9007;SDS011;62813;51.424;6.762;2023-01-16T18:03:18;9.23;;;6.40;;
9007;SDS011;62813;51.424;6.762;2023-01-16T18:05:45;10.73;;;5.97;;